createdAt,value
2023-02-01T00:00:37.200Z,1.70
2023-02-01T00:06:00.124Z,1.60
2023-02-01T00:11:05.800Z,1.70
2023-02-01T00:16:13.129Z,1.80
2023-02-01T00:21:18.223Z,1.90
2023-02-01T00:26:41.842Z,1.70
2023-02-01T00:31:45.078Z,2.00
2023-02-01T00:36:48.269Z,1.70
2023-02-01T00:41:50.920Z,1.80
2023-02-01T00:46:53.648Z,1.90
2023-02-01T00:51:56.472Z,1.90
2023-02-01T00:57:01.299Z,1.70
2023-02-01T01:02:03.925Z,2.20
2023-02-01T01:07:06.725Z,1.40
2023-02-01T01:12:09.377Z,2.20
2023-02-01T01:17:12.462Z,1.50
2023-02-01T01:22:15.033Z,1.90
2023-02-01T01:27:23.715Z,1.90
2023-02-01T01:32:26.285Z,2.20
2023-02-01T01:37:29.036Z,1.40
2023-02-01T01:42:32.741Z,1.80
2023-02-01T01:47:44.108Z,1.80
2023-02-01T01:52:51.263Z,1.90
2023-02-01T01:58:00.346Z,1.50
2023-02-01T02:03:48.738Z,2.60
2023-02-01T02:08:51.263Z,1.80
2023-02-01T02:13:57.415Z,1.50
2023-02-01T02:19:21.987Z,2.00
2023-02-01T02:25:02.429Z,1.60
2023-02-01T02:30:38.261Z,1.50
2023-02-01T02:35:59.713Z,1.60
2023-02-01T02:41:04.917Z,1.90
2023-02-01T02:46:51.607Z,1.80
2023-02-01T02:52:19.105Z,1.30
2023-02-01T02:57:45.177Z,2.00
2023-02-01T03:03:08.168Z,2.00
2023-02-01T03:08:13.716Z,1.70
2023-02-01T03:13:28.766Z,2.00
2023-02-01T03:18:34.921Z,1.90
2023-02-01T03:23:40.968Z,1.80
2023-02-01T03:28:49.651Z,2.00
2023-02-01T03:33:52.356Z,2.00
2023-02-01T03:39:03.974Z,2.10
2023-02-01T03:44:44.079Z,2.10
2023-02-01T03:50:11.717Z,2.10
2023-02-01T03:55:17.523Z,1.80
2023-02-01T04:00:26.701Z,1.90
2023-02-01T04:05:29.457Z,1.80
2023-02-01T04:10:32.058Z,1.60
2023-02-01T04:15:35.898Z,2.30
2023-02-01T04:20:38.557Z,2.10
2023-02-01T04:25:41.095Z,2.10
2023-02-01T04:30:45.107Z,2.50
2023-02-01T04:35:52.637Z,2.40
2023-02-01T04:40:55.227Z,2.70
2023-02-01T04:45:57.856Z,2.50
2023-02-01T04:51:00.559Z,2.20
2023-02-01T04:56:03.991Z,2.10
2023-02-01T05:01:07.558Z,3.10
2023-02-01T05:06:10.414Z,2.30
2023-02-01T05:11:33.112Z,2.10
2023-02-01T05:16:36.358Z,2.30
2023-02-01T05:21:39.156Z,2.70
2023-02-01T05:26:42.207Z,2.40
2023-02-01T05:31:46.567Z,1.90
2023-02-01T05:36:49.374Z,2.00
2023-02-01T05:41:51.895Z,1.60
2023-02-01T05:46:54.466Z,1.60
2023-02-01T05:51:58.848Z,2.20
2023-02-01T05:57:03.002Z,2.10
2023-02-01T06:02:05.666Z,1.90
2023-02-01T06:07:11.170Z,1.30
2023-02-01T06:12:14.781Z,1.90
2023-02-01T06:17:17.733Z,1.80
2023-02-01T06:22:20.472Z,1.80
2023-02-01T06:27:23.080Z,1.70
2023-02-01T06:32:26.362Z,1.70
2023-02-01T06:37:30.326Z,1.70
2023-02-01T06:42:32.905Z,1.80
2023-02-01T06:47:35.541Z,1.80
2023-02-01T06:52:38.296Z,1.80
2023-02-01T06:57:41.283Z,2.00
2023-02-01T07:02:44.122Z,1.70
2023-02-01T07:07:46.824Z,1.80
2023-02-01T07:12:49.417Z,1.70
2023-02-01T07:17:52.145Z,2.00
2023-02-01T07:22:58.682Z,1.80
2023-02-01T07:28:01.302Z,1.90
2023-02-01T07:33:04.051Z,2.40
2023-02-01T07:38:06.701Z,2.50
2023-02-01T07:43:09.711Z,2.10
2023-02-01T07:48:12.317Z,2.60
2023-02-01T07:53:15.521Z,2.00
2023-02-01T07:58:18.591Z,2.30
2023-02-01T08:03:21.392Z,2.70
2023-02-01T08:08:24.753Z,2.10
2023-02-01T08:13:28.122Z,2.40
2023-02-01T08:18:31.227Z,2.30
2023-02-01T08:23:35.564Z,2.30
2023-02-01T08:28:40.425Z,2.40
2023-02-01T08:33:44.397Z,2.50
2023-02-01T08:38:47.082Z,2.10
2023-02-01T08:43:50.325Z,1.90
2023-02-01T08:48:53.612Z,2.90
2023-02-01T08:53:57.221Z,2.40
2023-02-01T08:58:59.867Z,1.80
2023-02-01T09:04:02.566Z,2.40
2023-02-01T09:09:05.198Z,2.00
2023-02-01T09:14:07.829Z,2.40
2023-02-01T09:19:27.195Z,2.30
2023-02-01T09:24:30.182Z,2.20
2023-02-01T09:29:33.320Z,2.80
2023-02-01T09:34:36.093Z,2.00
2023-02-01T09:39:38.679Z,2.60
2023-02-01T09:45:08.677Z,2.30
2023-02-01T09:50:17.945Z,2.00
2023-02-01T09:55:58.448Z,2.50
2023-02-01T10:01:04.048Z,2.10
2023-02-01T10:06:45.629Z,2.30
2023-02-01T10:12:12.940Z,2.00
2023-02-01T10:17:52.925Z,2.90
2023-02-01T10:23:33.427Z,2.30
2023-02-01T10:28:40.148Z,2.30
2023-02-01T10:33:45.189Z,2.40
2023-02-01T10:38:49.441Z,2.50
2023-02-01T10:43:58.089Z,2.00
2023-02-01T10:49:05.665Z,2.50
2023-02-01T10:54:17.881Z,4.00
2023-02-01T10:59:25.738Z,2.50
2023-02-01T11:04:35.052Z,2.70
2023-02-01T11:09:42.676Z,2.80
2023-02-01T11:14:48.771Z,2.50
2023-02-01T11:20:01.909Z,3.00
2023-02-01T11:25:11.709Z,2.70
2023-02-01T11:30:19.005Z,3.10
2023-02-01T11:35:22.779Z,3.00
2023-02-01T11:40:44.442Z,2.90
2023-02-01T11:46:18.158Z,2.40
2023-02-01T11:51:26.951Z,2.70
2023-02-01T11:57:11.697Z,3.10
2023-02-01T12:02:34.468Z,2.50
2023-02-01T12:07:43.011Z,2.60
2023-02-01T12:13:04.638Z,3.00
2023-02-01T12:18:26.386Z,2.60
2023-02-01T12:23:50.417Z,2.80
2023-02-01T12:29:31.452Z,2.70
2023-02-01T12:35:03.274Z,2.90
2023-02-01T12:40:47.938Z,2.30
2023-02-01T12:45:58.321Z,2.30
2023-02-01T12:51:07.639Z,2.20
2023-02-01T12:56:16.085Z,2.30
2023-02-01T13:01:24.386Z,2.60
2023-02-01T13:06:32.485Z,2.60
2023-02-01T13:11:39.061Z,2.70
2023-02-01T13:16:45.769Z,2.70
2023-02-01T13:21:54.862Z,3.00
2023-02-01T13:26:58.074Z,3.20
2023-02-01T13:33:50.664Z,3.10
2023-02-01T13:38:19.647Z,3.50
2023-02-01T13:43:30.023Z,4.00
2023-02-01T13:48:51.832Z,4.40
2023-02-01T13:53:54.716Z,7.20
2023-02-01T13:58:57.355Z,9.10
2023-02-01T14:04:02.248Z,7.30
2023-02-01T14:09:14.662Z,4.00
2023-02-01T14:14:17.771Z,7.40
2023-02-01T14:19:26.812Z,5.30
2023-02-01T14:24:37.719Z,4.30
2023-02-01T14:29:43.402Z,4.10
2023-02-01T14:34:50.144Z,3.40
2023-02-01T14:40:04.070Z,3.10
2023-02-01T14:45:28.010Z,3.00
2023-02-01T14:50:37.818Z,3.40
2023-02-01T14:55:48.629Z,2.70
2023-02-01T15:00:56.140Z,2.80
2023-02-01T15:06:01.805Z,2.50
2023-02-01T15:11:11.963Z,2.50
2023-02-01T15:16:22.689Z,2.20
2023-02-01T15:21:29.906Z,2.60
2023-02-01T15:26:35.192Z,2.50
2023-02-01T15:31:41.785Z,2.80
2023-02-01T15:37:00.646Z,2.60
2023-02-01T15:47:26.163Z,2.40
2023-02-01T15:52:47.851Z,2.90
2023-02-01T15:57:52.402Z,2.80
2023-02-01T16:03:04.377Z,2.30
2023-02-01T16:08:13.833Z,2.80
2023-02-01T16:13:18.336Z,2.80
2023-02-01T16:18:21.542Z,2.40
2023-02-01T16:23:24.176Z,2.70
2023-02-01T16:28:27.237Z,2.50
2023-02-01T16:33:29.987Z,2.00
2023-02-01T16:38:32.664Z,2.70
2023-02-01T16:43:35.246Z,7.40
2023-02-01T16:48:38.202Z,6.60
2023-02-01T16:53:53.528Z,8.60
2023-02-01T16:58:57.198Z,8.50
2023-02-01T17:04:01.409Z,4.60
2023-02-01T17:09:05.719Z,6.00
2023-02-01T17:14:20.527Z,4.50
2023-02-01T17:19:25.173Z,4.60
2023-02-01T17:24:46.574Z,5.60
2023-02-01T17:29:51.152Z,3.70
2023-02-01T17:34:54.933Z,3.80
2023-02-01T17:39:58.365Z,3.50
2023-02-01T17:45:11.779Z,3.40
2023-02-01T17:50:15.045Z,3.40
2023-02-01T17:55:26.624Z,6.80
2023-02-01T18:00:29.779Z,5.10
2023-02-01T18:05:44.656Z,2.80
2023-02-01T18:11:01.842Z,3.90
2023-02-01T18:16:05.502Z,3.50
2023-02-01T18:21:09.525Z,3.80
2023-02-01T18:26:14.403Z,2.70
2023-02-01T18:31:39.733Z,3.10
2023-02-01T18:36:42.505Z,3.30
2023-02-01T18:41:48.567Z,5.50
2023-02-01T18:46:51.318Z,3.80
2023-02-01T18:51:53.876Z,3.20
2023-02-01T18:56:56.473Z,3.40
2023-02-01T19:01:59.032Z,3.30
2023-02-01T19:07:01.869Z,3.30
2023-02-01T19:12:04.978Z,4.20
2023-02-01T19:17:08.805Z,5.00
2023-02-01T19:22:12.052Z,4.90
2023-02-01T19:27:14.633Z,4.90
2023-02-01T19:32:17.781Z,5.80
2023-02-01T19:37:20.688Z,8.80
2023-02-01T19:42:25.239Z,11.80
2023-02-01T19:47:27.924Z,8.70
2023-02-01T19:52:30.526Z,8.90
2023-02-01T19:57:33.400Z,6.90
2023-02-01T20:02:35.307Z,7.80
2023-02-01T20:07:38.567Z,8.00
2023-02-01T20:12:42.474Z,7.70
2023-02-01T20:17:45.085Z,7.10
2023-02-01T20:22:47.839Z,6.00
2023-02-01T20:27:52.013Z,4.40
2023-02-01T20:32:54.688Z,5.60
2023-02-01T20:37:58.951Z,4.90
2023-02-01T20:43:01.645Z,5.10
2023-02-01T20:48:04.349Z,4.60
2023-02-01T20:53:06.980Z,5.10
2023-02-01T20:58:09.807Z,5.00
2023-02-01T21:03:13.686Z,5.10
2023-02-01T21:08:16.891Z,5.70
2023-02-01T21:13:20.441Z,4.40
2023-02-01T21:18:24.757Z,5.10
2023-02-01T21:23:27.355Z,6.20
2023-02-01T21:28:29.962Z,6.70
2023-02-01T21:33:32.675Z,5.90
2023-02-01T21:38:35.351Z,5.30
2023-02-01T21:43:37.953Z,5.10
2023-02-01T21:49:05.565Z,4.40
2023-02-01T21:54:05.749Z,5.10
2023-02-01T21:59:10.314Z,4.80
2023-02-01T22:04:13.253Z,4.90
2023-02-01T22:09:23.535Z,4.50
2023-02-01T22:14:26.110Z,5.40
2023-02-01T22:19:28.679Z,5.20
2023-02-01T22:24:31.422Z,5.30
2023-02-01T22:29:34.935Z,5.80
2023-02-01T22:34:38.964Z,5.00
2023-02-01T22:39:41.607Z,5.10
2023-02-01T22:44:45.075Z,5.70
2023-02-01T22:49:47.703Z,5.50
2023-02-01T22:54:50.296Z,5.30
2023-02-01T22:59:52.943Z,5.60
2023-02-01T23:04:55.462Z,5.50
2023-02-01T23:09:58.023Z,5.00
2023-02-01T23:15:06.525Z,5.90
2023-02-01T23:20:15.789Z,4.70
2023-02-01T23:25:18.699Z,4.60
2023-02-01T23:30:21.849Z,4.90
2023-02-01T23:35:24.927Z,5.20
2023-02-01T23:40:27.765Z,5.30
2023-02-01T23:45:30.363Z,5.60
2023-02-01T23:50:33.116Z,5.70
2023-02-01T23:55:35.706Z,5.10
